Time;durP1;ratioP1;P1;durP2;ratioP2;P2;SDS_P1;SDS_P2;PMS_P1;PMS_P2;Temp;Humidity;BMP_temperature;BMP_pressure;BME280_temperature;BME280_humidity;BME280_pressure;Samples;Min_cycle;Max_cycle;Signal;HPM_P1;HPM_P2
2023/08/01 00:01:00;;;;;;;4.90;2.53;;;;;;;;;;5018442;28;20534;-83
2023/08/01 00:03:26;;;;;;;4.90;2.30;;;;;;;;;;5031371;28;20038;-82
2023/08/01 00:05:51;;;;;;;5.47;2.47;;;;;;;;;;5036928;28;20492;-83
2023/08/01 00:08:16;;;;;;;4.68;2.42;;;;;;;;;;5035500;28;20029;-83
2023/08/01 00:14:04;;;;;;;5.10;2.28;;;;;;;;;;5030057;28;20052;-83
2023/08/01 00:16:29;;;;;;;5.65;2.25;;;;;;;;;;5018536;28;20037;-83
2023/08/01 00:18:55;;;;;;;3.25;2.30;;;;;;;;;;5035904;28;20030;-85
2023/08/01 00:21:20;;;;;;;8.05;2.97;;;;;;;;;;5032921;28;20038;-84
2023/08/01 00:23:46;;;;;;;6.45;3.03;;;;;;;;;;5036980;28;20037;-83
2023/08/01 00:26:11;;;;;;;3.28;2.42;;;;;;;;;;5027813;28;20068;-84
2023/08/01 00:28:36;;;;;;;3.50;2.40;;;;;;;;;;5036341;28;20037;-83
2023/08/01 00:31:06;;;;;;;11.63;2.80;;;;;;;;;;5036654;28;20029;-83
2023/08/01 00:33:32;;;;;;;5.18;2.08;;;;;;;;;;5020356;28;20040;-84
2023/08/01 00:35:57;;;;;;;8.05;2.70;;;;;;;;;;5037446;28;20025;-84
2023/08/01 00:39:19;;;;;;;8.38;3.03;;;;;;;;;;5016302;28;20080;-83
2023/08/01 00:41:44;;;;;;;7.00;3.00;;;;;;;;;;5007815;28;20089;-84
2023/08/01 00:44:10;;;;;;;5.30;3.03;;;;;;;;;;5031763;28;20060;-84
2023/08/01 00:46:35;;;;;;;6.20;2.47;;;;;;;;;;5036944;28;20064;-83
2023/08/01 00:49:00;;;;;;;6.80;3.42;;;;;;;;;;5037705;28;20021;-85
2023/08/01 00:51:26;;;;;;;5.55;2.40;;;;;;;;;;5040125;28;20025;-83
2023/08/01 00:53:53;;;;;;;3.75;2.40;;;;;;;;;;5044110;28;20025;-82
2023/08/01 00:56:18;;;;;;;4.57;2.90;;;;;;;;;;5037298;28;20422;-82
2023/08/01 00:58:43;;;;;;;8.07;2.42;;;;;;;;;;5037494;28;20026;-82
2023/08/01 01:01:09;;;;;;;4.53;2.40;;;;;;;;;;5033443;28;20033;-84
2023/08/01 01:03:34;;;;;;;4.50;2.65;;;;;;;;;;5022944;28;20030;-84
2023/08/01 01:06:25;;;;;;;3.67;2.47;;;;;;;;;;5013472;28;20116;-84
2023/08/01 01:08:51;;;;;;;4.67;3.10;;;;;;;;;;5036210;28;20036;-83
2023/08/01 01:11:16;;;;;;;7.40;2.63;;;;;;;;;;5029929;28;20482;-84
2023/08/01 01:13:41;;;;;;;4.20;2.50;;;;;;;;;;5034764;28;20065;-82
2023/08/01 01:16:07;;;;;;;5.05;2.15;;;;;;;;;;5043729;28;20044;-84
2023/08/01 01:18:32;;;;;;;4.78;2.35;;;;;;;;;;5043171;28;20076;-84
2023/08/01 01:20:57;;;;;;;2.97;2.10;;;;;;;;;;5042436;28;20033;-82
2023/08/01 01:23:25;;;;;;;5.22;2.30;;;;;;;;;;5032527;28;20049;-83
2023/08/01 01:25:51;;;;;;;4.15;2.40;;;;;;;;;;5040560;28;20507;-83
2023/08/01 01:28:18;;;;;;;3.42;2.25;;;;;;;;;;5020668;28;20450;-83
2023/08/01 01:30:45;;;;;;;3.65;1.92;;;;;;;;;;5039684;28;20112;-84
2023/08/01 01:33:11;;;;;;;5.53;2.92;;;;;;;;;;5033012;28;20026;-83
2023/08/01 01:35:36;;;;;;;4.05;2.35;;;;;;;;;;5039807;28;20029;-85
2023/08/01 01:38:05;;;;;;;6.85;2.72;;;;;;;;;;5014930;28;20029;-85
2023/08/01 01:40:32;;;;;;;7.60;3.15;;;;;;;;;;5039345;28;20025;-85
2023/08/01 01:42:58;;;;;;;3.97;2.60;;;;;;;;;;5028543;28;20032;-85
2023/08/01 01:45:23;;;;;;;9.43;2.90;;;;;;;;;;5031525;28;20038;-86
2023/08/01 01:47:48;;;;;;;4.95;2.70;;;;;;;;;;5036324;28;20060;-85
2023/08/01 01:50:14;;;;;;;4.30;2.72;;;;;;;;;;5030349;28;20033;-84
2023/08/01 01:52:39;;;;;;;4.03;2.38;;;;;;;;;;5030980;28;20026;-84
2023/08/01 01:55:05;;;;;;;7.88;3.13;;;;;;;;;;5029583;28;20504;-84
2023/08/01 01:57:30;;;;;;;7.07;2.55;;;;;;;;;;5026260;28;20063;-84
2023/08/01 01:59:55;;;;;;;3.10;2.20;;;;;;;;;;5032159;28;20017;-83
2023/08/01 02:02:21;;;;;;;5.38;3.10;;;;;;;;;;5033672;28;20037;-84
2023/08/01 02:04:48;;;;;;;4.40;2.60;;;;;;;;;;5028398;28;20083;-84
2023/08/01 02:07:14;;;;;;;3.78;2.72;;;;;;;;;;5039555;28;20033;-83
2023/08/01 02:09:39;;;;;;;5.80;2.70;;;;;;;;;;5034674;28;20025;-84
2023/08/01 02:12:05;;;;;;;4.78;2.55;;;;;;;;;;5036122;28;20063;-83
2023/08/01 02:14:31;;;;;;;6.07;3.03;;;;;;;;;;5031435;28;20048;-84
2023/08/01 02:16:56;;;;;;;6.18;2.72;;;;;;;;;;5030087;28;20072;-83
2023/08/01 02:19:21;;;;;;;4.35;2.80;;;;;;;;;;5019742;28;20056;-84
2023/08/01 02:21:47;;;;;;;4.88;2.70;;;;;;;;;;5027201;28;20093;-83
2023/08/01 02:24:12;;;;;;;3.92;2.58;;;;;;;;;;5026960;28;20422;-84
2023/08/01 02:26:37;;;;;;;4.20;2.58;;;;;;;;;;5029752;28;20029;-84
2023/08/01 02:29:03;;;;;;;3.83;3.10;;;;;;;;;;5035778;28;20037;-83
2023/08/01 02:31:28;;;;;;;3.80;2.45;;;;;;;;;;5024526;28;20041;-83
2023/08/01 02:33:53;;;;;;;8.30;3.03;;;;;;;;;;5031887;28;20029;-82
2023/08/01 02:36:19;;;;;;;4.88;3.15;;;;;;;;;;5038520;28;20029;-83
2023/08/01 02:38:44;;;;;;;4.90;2.75;;;;;;;;;;5037927;28;20017;-83
2023/08/01 02:41:09;;;;;;;5.38;2.95;;;;;;;;;;5038761;28;20052;-84
2023/08/01 02:43:36;;;;;;;5.32;3.15;;;;;;;;;;5033149;28;20024;-83
2023/08/01 02:46:01;;;;;;;5.95;3.15;;;;;;;;;;5039147;28;20029;-83
2023/08/01 02:48:27;;;;;;;5.13;3.30;;;;;;;;;;5012913;28;20029;-82
2023/08/01 02:50:52;;;;;;;4.97;3.10;;;;;;;;;;5035237;28;20075;-84
2023/08/01 02:53:18;;;;;;;4.60;2.65;;;;;;;;;;5035753;28;20124;-83
2023/08/01 02:55:46;;;;;;;3.95;2.60;;;;;;;;;;5039610;28;20068;-84
2023/08/01 02:58:12;;;;;;;5.47;2.90;;;;;;;;;;5030404;28;20021;-83
2023/08/01 03:00:39;;;;;;;3.88;2.78;;;;;;;;;;5039978;28;20025;-83
2023/08/01 03:03:04;;;;;;;8.27;3.20;;;;;;;;;;5016972;28;20088;-83
2023/08/01 03:05:29;;;;;;;4.65;3.10;;;;;;;;;;5033935;28;20056;-82
2023/08/01 03:07:55;;;;;;;6.93;3.15;;;;;;;;;;5038679;28;20025;-83
2023/08/01 03:10:20;;;;;;;3.25;2.40;;;;;;;;;;5038912;28;20021;-82
2023/08/01 03:12:45;;;;;;;4.30;2.83;;;;;;;;;;5034793;28;20029;-83
2023/08/01 03:15:11;;;;;;;7.50;2.78;;;;;;;;;;5012132;28;20064;-84
2023/08/01 03:17:36;;;;;;;5.72;3.17;;;;;;;;;;5040310;28;20471;-83
2023/08/01 03:20:01;;;;;;;7.05;3.10;;;;;;;;;;5029117;28;20021;-82
2023/08/01 03:22:27;;;;;;;6.03;2.83;;;;;;;;;;5022463;28;20017;-84
2023/08/01 03:24:52;;;;;;;8.27;3.17;;;;;;;;;;5038413;28;20083;-83
2023/08/01 03:27:17;;;;;;;5.57;2.78;;;;;;;;;;5038890;28;20120;-84
2023/08/01 03:29:43;;;;;;;8.05;3.17;;;;;;;;;;5037470;28;20108;-83
2023/08/01 03:32:08;;;;;;;11.45;3.10;;;;;;;;;;5039788;28;20048;-85
2023/08/01 03:34:33;;;;;;;7.60;3.05;;;;;;;;;;5036868;28;20021;-84
2023/08/01 03:36:59;;;;;;;5.13;2.50;;;;;;;;;;5042129;28;20036;-84
2023/08/01 03:39:24;;;;;;;4.15;2.65;;;;;;;;;;5044352;28;20589;-82
2023/08/01 03:41:50;;;;;;;5.65;2.70;;;;;;;;;;5019304;28;20052;-83
2023/08/01 03:44:16;;;;;;;4.38;2.95;;;;;;;;;;5016391;28;20029;-83
2023/08/01 03:46:42;;;;;;;6.97;3.15;;;;;;;;;;5029168;28;20096;-82
2023/08/01 03:49:08;;;;;;;5.68;2.40;;;;;;;;;;5036830;28;20061;-83
2023/08/01 03:51:33;;;;;;;6.63;2.95;;;;;;;;;;5015342;28;20105;-83
2023/08/01 03:53:58;;;;;;;4.70;2.58;;;;;;;;;;5033447;28;20071;-82
2023/08/01 03:56:24;;;;;;;4.90;2.60;;;;;;;;;;5038740;28;20018;-84
2023/08/01 03:58:49;;;;;;;4.97;2.40;;;;;;;;;;5032829;28;20419;-84
2023/08/01 04:01:14;;;;;;;3.63;2.50;;;;;;;;;;5031209;28;20017;-83
2023/08/01 04:03:40;;;;;;;4.00;2.17;;;;;;;;;;5029224;28;20389;-83
2023/08/01 04:06:05;;;;;;;6.38;2.58;;;;;;;;;;5037073;28;20029;-83
2023/08/01 04:08:30;;;;;;;5.18;2.40;;;;;;;;;;5010718;28;20463;-82
2023/08/01 04:10:56;;;;;;;6.38;2.75;;;;;;;;;;5032836;28;20021;-83
2023/08/01 04:13:21;;;;;;;3.65;2.55;;;;;;;;;;5033249;28;20048;-82
2023/08/01 04:15:47;;;;;;;4.80;2.00;;;;;;;;;;5031311;28;20021;-83
2023/08/01 04:18:13;;;;;;;3.45;2.25;;;;;;;;;;5031352;28;20026;-83
2023/08/01 04:20:38;;;;;;;3.88;2.38;;;;;;;;;;5028842;28;20442;-82
2023/08/01 04:23:03;;;;;;;4.72;2.35;;;;;;;;;;5035818;28;20415;-83
2023/08/01 04:25:29;;;;;;;6.72;2.28;;;;;;;;;;5037475;28;20022;-83
2023/08/01 04:27:54;;;;;;;5.30;2.60;;;;;;;;;;5037406;28;20072;-84
2023/08/01 04:30:19;;;;;;;4.45;2.50;;;;;;;;;;5029250;28;20065;-82
2023/08/01 04:32:45;;;;;;;5.53;2.58;;;;;;;;;;5020271;28;20029;-84
2023/08/01 04:35:10;;;;;;;4.82;2.10;;;;;;;;;;5029298;28;20021;-83
2023/08/01 04:37:35;;;;;;;4.70;2.00;;;;;;;;;;5038180;28;20018;-82
2023/08/01 04:40:01;;;;;;;4.55;2.30;;;;;;;;;;5029869;28;20022;-83
2023/08/01 04:42:26;;;;;;;5.55;2.40;;;;;;;;;;5037634;28;20081;-84
2023/08/01 04:44:52;;;;;;;3.38;2.28;;;;;;;;;;5031954;28;20041;-84
2023/08/01 04:47:17;;;;;;;4.72;1.95;;;;;;;;;;5039336;28;20026;-83
2023/08/01 04:49:42;;;;;;;6.43;2.08;;;;;;;;;;5043482;28;20064;-83
2023/08/01 04:52:08;;;;;;;7.57;2.45;;;;;;;;;;5042296;28;20079;-84
2023/08/01 04:54:33;;;;;;;3.40;2.00;;;;;;;;;;5035706;28;20033;-83
2023/08/01 04:56:58;;;;;;;2.90;1.88;;;;;;;;;;5041259;28;20029;-83
2023/08/01 04:59:24;;;;;;;4.72;2.03;;;;;;;;;;5037404;28;20087;-84
2023/08/01 05:01:49;;;;;;;2.60;1.80;;;;;;;;;;5026396;28;20120;-82
2023/08/01 05:04:14;;;;;;;4.28;2.10;;;;;;;;;;5034082;28;20037;-83
2023/08/01 05:06:40;;;;;;;3.53;2.28;;;;;;;;;;5041794;28;20018;-82
2023/08/01 05:09:06;;;;;;;4.20;2.10;;;;;;;;;;5037961;28;20056;-84
2023/08/01 05:11:32;;;;;;;5.78;1.70;;;;;;;;;;5039470;28;20108;-80
2023/08/01 05:13:57;;;;;;;2.78;2.03;;;;;;;;;;5034523;28;20054;-82
2023/08/01 05:16:22;;;;;;;3.33;2.17;;;;;;;;;;5020762;28;20036;-81
2023/08/01 05:18:48;;;;;;;4.72;1.70;;;;;;;;;;5034049;28;20032;-83
2023/08/01 05:21:13;;;;;;;3.78;2.13;;;;;;;;;;5041299;28;20477;-82
2023/08/01 05:23:38;;;;;;;3.72;1.95;;;;;;;;;;5037923;28;20025;-83
2023/08/01 05:26:04;;;;;;;3.95;2.20;;;;;;;;;;5029455;28;20018;-83
2023/08/01 05:28:29;;;;;;;5.22;1.92;;;;;;;;;;5040026;28;20101;-82
2023/08/01 05:30:54;;;;;;;1.88;1.60;;;;;;;;;;5040136;28;20021;-84
2023/08/01 05:33:20;;;;;;;3.25;1.92;;;;;;;;;;5032166;28;20037;-83
2023/08/01 05:35:45;;;;;;;2.33;1.55;;;;;;;;;;5034069;28;20084;-83
2023/08/01 05:38:10;;;;;;;3.20;2.15;;;;;;;;;;5037218;28;20028;-82
2023/08/01 05:40:36;;;;;;;3.45;2.17;;;;;;;;;;5027312;28;20489;-83
2023/08/01 05:43:01;;;;;;;3.25;1.90;;;;;;;;;;5041343;28;20025;-83
2023/08/01 05:45:27;;;;;;;6.32;2.05;;;;;;;;;;5041092;28;20025;-83
2023/08/01 05:47:52;;;;;;;4.38;1.88;;;;;;;;;;5045224;28;20057;-84
2023/08/01 05:50:17;;;;;;;3.63;2.13;;;;;;;;;;5040634;28;20041;-84
2023/08/01 05:52:44;;;;;;;4.72;2.20;;;;;;;;;;5043374;28;20033;-83
2023/08/01 05:55:09;;;;;;;3.65;2.10;;;;;;;;;;5021752;28;20088;-82
2023/08/01 05:57:34;;;;;;;3.65;2.17;;;;;;;;;;5043569;28;20037;-83
2023/08/01 06:00:00;;;;;;;3.55;2.40;;;;;;;;;;5022342;28;20030;-81
2023/08/01 06:02:25;;;;;;;6.75;2.10;;;;;;;;;;5038542;28;20033;-82
2023/08/01 06:04:50;;;;;;;7.40;2.88;;;;;;;;;;5017449;28;20029;-84
2023/08/01 06:07:16;;;;;;;4.40;2.05;;;;;;;;;;5022267;28;20468;-84
2023/08/01 06:09:41;;;;;;;6.60;2.28;;;;;;;;;;5020290;28;20033;-84
2023/08/01 06:12:07;;;;;;;8.02;2.58;;;;;;;;;;5030686;28;20025;-83
2023/08/01 06:14:32;;;;;;;3.70;2.30;;;;;;;;;;5027946;28;20037;-84
2023/08/01 06:16:57;;;;;;;3.03;2.00;;;;;;;;;;5031427;28;20028;-85
2023/08/01 06:19:23;;;;;;;5.07;2.10;;;;;;;;;;5024703;28;20021;-85
2023/08/01 06:21:48;;;;;;;4.75;1.90;;;;;;;;;;5034290;28;20052;-85
2023/08/01 06:24:13;;;;;;;5.75;2.30;;;;;;;;;;5032806;28;20033;-84
2023/08/01 06:26:39;;;;;;;5.00;2.30;;;;;;;;;;5034946;28;20022;-85
2023/08/01 06:29:04;;;;;;;4.95;2.40;;;;;;;;;;5034904;28;20021;-86
2023/08/01 06:31:30;;;;;;;8.93;2.80;;;;;;;;;;5032626;28;20562;-85
2023/08/01 06:33:55;;;;;;;4.22;2.50;;;;;;;;;;5023655;28;20018;-85
2023/08/01 06:36:21;;;;;;;9.45;3.20;;;;;;;;;;5038552;28;20029;-86
2023/08/01 06:38:46;;;;;;;5.00;2.70;;;;;;;;;;5029015;28;20013;-85
2023/08/01 06:41:11;;;;;;;4.15;2.90;;;;;;;;;;5038130;28;20029;-86
2023/08/01 06:43:38;;;;;;;5.90;2.83;;;;;;;;;;5030327;28;20017;-85
2023/08/01 06:46:04;;;;;;;5.93;3.03;;;;;;;;;;5031566;28;20181;-85
2023/08/01 06:48:29;;;;;;;5.43;2.95;;;;;;;;;;5039315;28;20487;-85
2023/08/01 06:50:54;;;;;;;4.70;2.85;;;;;;;;;;5038800;28;20029;-85
2023/08/01 06:53:20;;;;;;;6.03;3.00;;;;;;;;;;5020983;28;20025;-85
2023/08/01 06:55:45;;;;;;;5.43;3.08;;;;;;;;;;5036549;28;20541;-85
2023/08/01 06:58:11;;;;;;;5.50;3.33;;;;;;;;;;5017306;28;20101;-84
2023/08/01 07:00:36;;;;;;;6.72;3.05;;;;;;;;;;5029441;28;20033;-84
2023/08/01 07:03:01;;;;;;;9.05;3.63;;;;;;;;;;5032574;28;20032;-83
2023/08/01 07:05:27;;;;;;;9.85;2.90;;;;;;;;;;5033491;28;20021;-83
2023/08/01 07:07:52;;;;;;;4.72;2.80;;;;;;;;;;5030054;28;20041;-83
2023/08/01 07:10:17;;;;;;;6.75;3.45;;;;;;;;;;5028299;28;20025;-83
2023/08/01 07:12:43;;;;;;;5.85;3.15;;;;;;;;;;5037570;28;20028;-83
2023/08/01 07:15:09;;;;;;;7.93;3.72;;;;;;;;;;5036492;28;20033;-83
2023/08/01 07:17:34;;;;;;;5.15;3.20;;;;;;;;;;5034739;28;20021;-83
2023/08/01 07:19:59;;;;;;;6.53;3.60;;;;;;;;;;5029235;28;20025;-84
2023/08/01 07:22:25;;;;;;;7.63;3.03;;;;;;;;;;5030516;28;20025;-83
2023/08/01 07:24:54;;;;;;;8.00;3.28;;;;;;;;;;5028018;28;20044;-84
2023/08/01 07:27:20;;;;;;;7.30;3.92;;;;;;;;;;5018262;28;20036;-85
2023/08/01 07:29:45;;;;;;;6.32;3.70;;;;;;;;;;5033689;28;20026;-84
2023/08/01 07:32:10;;;;;;;6.05;3.10;;;;;;;;;;5029547;28;20432;-84
2023/08/01 07:34:36;;;;;;;6.45;3.50;;;;;;;;;;5029599;28;20108;-83
2023/08/01 07:37:01;;;;;;;4.80;2.85;;;;;;;;;;5036421;28;20108;-84
2023/08/01 07:39:26;;;;;;;5.28;2.97;;;;;;;;;;5036164;28;20021;-83
2023/08/01 07:41:52;;;;;;;5.38;3.30;;;;;;;;;;5034368;28;20029;-83
2023/08/01 07:44:17;;;;;;;5.38;3.10;;;;;;;;;;5036325;28;20017;-83
2023/08/01 07:46:42;;;;;;;5.55;3.30;;;;;;;;;;5032851;28;20017;-83
2023/08/01 07:49:08;;;;;;;6.68;3.03;;;;;;;;;;5038296;28;20047;-84
2023/08/01 07:51:34;;;;;;;8.05;3.28;;;;;;;;;;5036939;28;20022;-83
2023/08/01 07:53:59;;;;;;;7.30;2.88;;;;;;;;;;5034379;28;20044;-82
2023/08/01 07:56:24;;;;;;;6.03;3.20;;;;;;;;;;5033252;28;20038;-83
2023/08/01 07:58:50;;;;;;;5.60;2.83;;;;;;;;;;5033591;28;20028;-82
2023/08/01 08:01:15;;;;;;;3.85;2.08;;;;;;;;;;5031309;28;20521;-82
2023/08/01 08:03:40;;;;;;;3.67;2.20;;;;;;;;;;5019519;28;20422;-83
2023/08/01 08:06:06;;;;;;;3.22;2.33;;;;;;;;;;5030330;28;20382;-82
2023/08/01 08:08:33;;;;;;;4.35;2.20;;;;;;;;;;5035310;28;20349;-83
2023/08/01 08:10:59;;;;;;;5.05;2.33;;;;;;;;;;5031447;28;20032;-82
2023/08/01 08:13:25;;;;;;;4.50;1.95;;;;;;;;;;5033365;28;20029;-82
2023/08/01 08:15:51;;;;;;;2.58;1.90;;;;;;;;;;5010830;28;20026;-84
2023/08/01 08:18:18;;;;;;;4.03;2.20;;;;;;;;;;5034940;28;20061;-83
2023/08/01 08:20:45;;;;;;;2.45;1.95;;;;;;;;;;5032488;28;20022;-83
2023/08/01 08:23:13;;;;;;;3.63;2.05;;;;;;;;;;5040042;28;20025;-83
2023/08/01 08:25:39;;;;;;;3.22;1.90;;;;;;;;;;5040054;28;20032;-82
2023/08/01 08:28:04;;;;;;;4.72;1.80;;;;;;;;;;5039571;28;20025;-83
2023/08/01 08:30:29;;;;;;;3.70;1.80;;;;;;;;;;5018148;28;20033;-83
2023/08/01 08:32:57;;;;;;;3.00;1.67;;;;;;;;;;5040264;28;20021;-84
2023/08/01 08:35:23;;;;;;;2.92;1.67;;;;;;;;;;5018279;28;20030;-83
2023/08/01 08:37:48;;;;;;;2.75;1.77;;;;;;;;;;5038929;28;20028;-83
2023/08/01 08:40:14;;;;;;;1.65;1.50;;;;;;;;;;5038035;28;20034;-83
2023/08/01 08:42:39;;;;;;;6.22;1.80;;;;;;;;;;5042221;28;20072;-83
2023/08/01 08:45:05;;;;;;;2.25;1.40;;;;;;;;;;5037464;28;20034;-83
2023/08/01 08:47:36;;;;;;;2.47;1.50;;;;;;;;;;5040116;28;20029;-83
2023/08/01 08:50:02;;;;;;;2.50;1.90;;;;;;;;;;5040901;28;20026;-83
2023/08/01 08:52:27;;;;;;;3.75;1.60;;;;;;;;;;5039079;28;20044;-81
2023/08/01 08:54:53;;;;;;;1.95;1.30;;;;;;;;;;5037174;28;20532;-82
2023/08/01 08:57:20;;;;;;;2.20;1.60;;;;;;;;;;5036713;28;20037;-83
2023/08/01 08:59:46;;;;;;;2.63;1.50;;;;;;;;;;5039710;28;20079;-83
2023/08/01 09:02:14;;;;;;;1.70;1.45;;;;;;;;;;5036749;28;20061;-82
2023/08/01 09:04:40;;;;;;;4.82;1.50;;;;;;;;;;5012514;28;20043;-82
2023/08/01 09:07:08;;;;;;;2.03;1.58;;;;;;;;;;5036361;28;20416;-83
2023/08/01 09:09:34;;;;;;;1.80;1.23;;;;;;;;;;5039078;28;20040;-84
2023/08/01 09:12:00;;;;;;;4.55;1.90;;;;;;;;;;5040652;28;20021;-83
2023/08/01 09:14:25;;;;;;;1.83;1.27;;;;;;;;;;5019229;28;20057;-83
2023/08/01 09:16:50;;;;;;;2.30;1.58;;;;;;;;;;5018928;28;20029;-82
2023/08/01 09:19:21;;;;;;;1.90;1.40;;;;;;;;;;5039850;28;20042;-83
2023/08/01 09:21:47;;;;;;;2.60;1.20;;;;;;;;;;5016998;28;20452;-83
2023/08/01 09:24:16;;;;;;;1.95;1.35;;;;;;;;;;5020758;28;20487;-84
2023/08/01 09:26:42;;;;;;;2.45;1.65;;;;;;;;;;5020775;28;20097;-84
2023/08/01 09:29:08;;;;;;;2.58;1.60;;;;;;;;;;5038853;28;20033;-83
2023/08/01 09:31:35;;;;;;;1.45;1.05;;;;;;;;;;5038717;28;20476;-83
2023/08/01 09:34:05;;;;;;;3.67;1.52;;;;;;;;;;5038035;28;20052;-86
2023/08/01 09:36:32;;;;;;;2.33;1.63;;;;;;;;;;5020797;28;20486;-84
2023/08/01 09:39:02;;;;;;;1.23;1.10;;;;;;;;;;5019329;28;20029;-83
2023/08/01 09:41:29;;;;;;;4.43;1.50;;;;;;;;;;5036333;28;20040;-83
2023/08/01 09:43:55;;;;;;;1.98;1.13;;;;;;;;;;5041313;28;20048;-83
2023/08/01 09:46:20;;;;;;;1.77;1.10;;;;;;;;;;5042375;28;20026;-84
2023/08/01 09:48:45;;;;;;;1.75;1.05;;;;;;;;;;5041099;28;20514;-83
2023/08/01 09:51:12;;;;;;;2.03;0.90;;;;;;;;;;5038495;28;20509;-83
2023/08/01 09:53:52;;;;;;;1.55;0.77;;;;;;;;;;5036678;28;20033;-84
2023/08/01 09:56:22;;;;;;;0.98;0.77;;;;;;;;;;5028938;28;20095;-83
2023/08/01 09:58:49;;;;;;;5.15;0.90;;;;;;;;;;5036906;28;20030;-82
2023/08/01 10:01:18;;;;;;;1.13;1.00;;;;;;;;;;5036846;28;20089;-83
2023/08/01 10:03:49;;;;;;;1.77;1.23;;;;;;;;;;5031861;28;20355;-82
2023/08/01 10:06:19;;;;;;;1.03;0.97;;;;;;;;;;5035481;28;20411;-83
2023/08/01 10:08:46;;;;;;;1.10;0.77;;;;;;;;;;5037286;28;20269;-83
2023/08/01 10:11:16;;;;;;;3.05;0.70;;;;;;;;;;5027468;28;20491;-81
2023/08/01 10:13:43;;;;;;;1.80;1.23;;;;;;;;;;5035772;28;20037;-82
2023/08/01 10:16:09;;;;;;;0.88;0.85;;;;;;;;;;5037413;28;20023;-83
2023/08/01 10:18:37;;;;;;;1.35;1.05;;;;;;;;;;5018573;28;20313;-83
2023/08/01 10:21:04;;;;;;;2.03;0.85;;;;;;;;;;5036469;28;20025;-84
2023/08/01 10:23:30;;;;;;;0.90;0.90;;;;;;;;;;5036057;28;20137;-85
2023/08/01 10:25:56;;;;;;;0.85;0.55;;;;;;;;;;5040173;28;20431;-84
2023/08/01 10:28:33;;;;;;;1.17;0.50;;;;;;;;;;5036726;28;20722;-85
2023/08/01 10:31:13;;;;;;;0.47;0.30;;;;;;;;;;5034504;28;20033;-85
2023/08/01 10:33:41;;;;;;;0.30;0.30;;;;;;;;;;5035807;28;20487;-84
2023/08/01 10:36:17;;;;;;;2.53;0.50;;;;;;;;;;5014265;28;20037;-85
2023/08/01 10:38:57;;;;;;;0.43;0.43;;;;;;;;;;5034869;28;20045;-82
2023/08/01 10:41:32;;;;;;;0.43;0.43;;;;;;;;;;5033240;28;20037;-83
2023/08/01 10:44:12;;;;;;;0.65;0.55;;;;;;;;;;5010556;28;20025;-85
2023/08/01 10:46:54;;;;;;;0.40;0.40;;;;;;;;;;5009561;28;20044;-85
2023/08/01 10:49:21;;;;;;;0.57;0.57;;;;;;;;;;5033351;28;20038;-84
2023/08/01 10:51:47;;;;;;;1.42;0.50;;;;;;;;;;5013763;28;20041;-84
2023/08/01 10:54:21;;;;;;;0.30;0.30;;;;;;;;;;5033831;28;20036;-83
2023/08/01 10:56:46;;;;;;;0.98;0.65;;;;;;;;;;5028216;28;20033;-84
2023/08/01 10:59:13;;;;;;;0.80;0.50;;;;;;;;;;5035387;28;20095;-84
2023/08/01 11:01:44;;;;;;;2.72;0.85;;;;;;;;;;5032697;28;20045;-84
2023/08/01 11:04:21;;;;;;;0.50;0.50;;;;;;;;;;5035460;28;20045;-84
2023/08/01 11:06:51;;;;;;;0.73;0.60;;;;;;;;;;5018546;28;20033;-85
2023/08/01 11:09:21;;;;;;;1.73;0.90;;;;;;;;;;5035618;28;20721;-83
2023/08/01 11:11:49;;;;;;;1.30;0.75;;;;;;;;;;5013556;28;20033;-83
2023/08/01 11:14:14;;;;;;;0.70;0.70;;;;;;;;;;5033776;28;20034;-83
2023/08/01 11:16:40;;;;;;;1.77;0.80;;;;;;;;;;5036213;28;20021;-85
2023/08/01 11:19:06;;;;;;;0.95;0.63;;;;;;;;;;5039247;28;20490;-83
2023/08/01 11:21:35;;;;;;;0.60;0.60;;;;;;;;;;5035497;28;20029;-83
2023/08/01 11:24:06;;;;;;;0.98;0.88;;;;;;;;;;5016206;28;20021;-85
2023/08/01 11:26:32;;;;;;;0.55;0.52;;;;;;;;;;5014026;28;20061;-84
2023/08/01 11:29:02;;;;;;;0.70;0.70;;;;;;;;;;5015464;28;20124;-83
2023/08/01 11:31:27;;;;;;;0.90;0.90;;;;;;;;;;5013611;28;20029;-85
2023/08/01 11:33:59;;;;;;;0.55;0.55;;;;;;;;;;5033878;28;20071;-84
2023/08/01 11:36:27;;;;;;;1.20;1.10;;;;;;;;;;5032040;28;20047;-83
2023/08/01 11:38:52;;;;;;;3.38;0.88;;;;;;;;;;5016504;28;20025;-84
2023/08/01 11:41:18;;;;;;;0.85;0.80;;;;;;;;;;5036888;28;20026;-82
2023/08/01 11:43:43;;;;;;;1.15;0.80;;;;;;;;;;5036168;28;20025;-83
2023/08/01 11:46:09;;;;;;;0.95;0.88;;;;;;;;;;5037169;28;20517;-84
2023/08/01 11:48:35;;;;;;;1.42;0.80;;;;;;;;;;5019828;28;20283;-85
2023/08/01 11:51:02;;;;;;;1.08;0.90;;;;;;;;;;5035465;28;20021;-85
2023/08/01 11:53:29;;;;;;;1.60;0.90;;;;;;;;;;5015175;28;20036;-85
2023/08/01 11:55:56;;;;;;;0.82;0.82;;;;;;;;;;5034214;28;20025;-85
2023/08/01 11:58:35;;;;;;;0.68;0.65;;;;;;;;;;5037496;28;20052;-83
2023/08/01 12:01:12;;;;;;;2.45;0.70;;;;;;;;;;5034870;28;20484;-84
2023/08/01 12:03:48;;;;;;;1.05;0.95;;;;;;;;;;5034703;28;20037;-84
2023/08/01 12:06:14;;;;;;;2.10;1.02;;;;;;;;;;5032303;28;20021;-83
2023/08/01 12:08:41;;;;;;;4.00;1.40;;;;;;;;;;5038349;28;20017;-83
2023/08/01 12:11:30;;;;;;;1.20;0.88;;;;;;;;;;5039938;28;20124;-82
2023/08/01 12:14:03;;;;;;;1.20;1.00;;;;;;;;;;5039438;28;20056;-83
2023/08/01 12:16:29;;;;;;;1.65;0.88;;;;;;;;;;5039414;28;20026;-85
2023/08/01 12:18:55;;;;;;;1.17;0.50;;;;;;;;;;5040654;28;20502;-84
2023/08/01 12:21:20;;;;;;;2.83;1.13;;;;;;;;;;5041681;28;20063;-83
2023/08/01 12:23:46;;;;;;;1.35;0.90;;;;;;;;;;5034154;28;20029;-82
2023/08/01 12:26:12;;;;;;;3.13;0.73;;;;;;;;;;5039620;28;20152;-85
2023/08/01 12:28:37;;;;;;;1.02;0.82;;;;;;;;;;5033730;28;20029;-83
2023/08/01 12:31:03;;;;;;;1.05;0.73;;;;;;;;;;5027914;28;20022;-85
2023/08/01 12:33:29;;;;;;;2.53;1.08;;;;;;;;;;5032232;28;20076;-84
2023/08/01 12:35:54;;;;;;;1.13;0.80;;;;;;;;;;5032811;28;20483;-84
2023/08/01 12:38:20;;;;;;;1.85;0.70;;;;;;;;;;5028328;28;20037;-83
2023/08/01 12:40:46;;;;;;;0.63;0.63;;;;;;;;;;5034630;28;20052;-83
2023/08/01 12:43:12;;;;;;;0.80;0.75;;;;;;;;;;5032759;28;20041;-84
2023/08/01 12:45:37;;;;;;;1.15;0.47;;;;;;;;;;5031850;28;20033;-85
2023/08/01 12:48:03;;;;;;;1.48;0.93;;;;;;;;;;5026802;28;20043;-83
2023/08/01 12:50:28;;;;;;;1.85;0.60;;;;;;;;;;5020566;28;20045;-82
2023/08/01 12:52:53;;;;;;;1.17;0.80;;;;;;;;;;5042054;28;20025;-82
2023/08/01 12:55:19;;;;;;;1.92;1.10;;;;;;;;;;5041348;28;20071;-82
2023/08/01 12:57:44;;;;;;;1.83;1.10;;;;;;;;;;5042569;28;20758;-82
2023/08/01 13:00:10;;;;;;;2.60;1.30;;;;;;;;;;5041303;28;20013;-82
2023/08/01 13:02:37;;;;;;;2.45;1.30;;;;;;;;;;5040402;28;20029;-83
2023/08/01 13:05:03;;;;;;;1.33;1.05;;;;;;;;;;5040612;28;20024;-82
2023/08/01 13:07:31;;;;;;;1.27;0.95;;;;;;;;;;5035715;28;20593;-82
2023/08/01 13:09:56;;;;;;;0.60;0.60;;;;;;;;;;5036346;28;20132;-84
2023/08/01 13:12:22;;;;;;;3.60;0.98;;;;;;;;;;5032083;28;20021;-83
2023/08/01 13:14:47;;;;;;;5.68;0.80;;;;;;;;;;5022506;28;20072;-83
2023/08/01 13:17:12;;;;;;;1.08;0.90;;;;;;;;;;5030017;28;20034;-84
2023/08/01 13:19:37;;;;;;;1.25;1.15;;;;;;;;;;5036685;28;20030;-83
2023/08/01 13:22:03;;;;;;;3.45;1.10;;;;;;;;;;5037558;28;20080;-84
2023/08/01 13:24:29;;;;;;;1.60;1.15;;;;;;;;;;5017399;28;20111;-83
2023/08/01 13:26:54;;;;;;;2.00;0.93;;;;;;;;;;5012010;28;20052;-84
2023/08/01 13:29:20;;;;;;;1.25;1.00;;;;;;;;;;5020292;28;20063;-84
2023/08/01 13:31:45;;;;;;;2.58;1.20;;;;;;;;;;5031349;28;20083;-83
2023/08/01 13:34:10;;;;;;;3.58;1.10;;;;;;;;;;5034142;28;20035;-84
2023/08/01 13:36:36;;;;;;;2.85;1.10;;;;;;;;;;5032988;28;20028;-84
2023/08/01 13:39:02;;;;;;;1.17;1.08;;;;;;;;;;5037769;28;20032;-84
2023/08/01 13:41:27;;;;;;;1.58;0.70;;;;;;;;;;5032659;28;20054;-83
2023/08/01 13:43:52;;;;;;;2.00;1.15;;;;;;;;;;5036267;28;20475;-86
2023/08/01 13:46:21;;;;;;;3.20;0.88;;;;;;;;;;5036106;28;20032;-84
2023/08/01 13:48:47;;;;;;;1.00;0.85;;;;;;;;;;5033025;28;20086;-85
2023/08/01 13:51:13;;;;;;;1.58;1.10;;;;;;;;;;5031980;28;20056;-84
2023/08/01 13:53:42;;;;;;;3.63;1.30;;;;;;;;;;5011311;28;21695;-81
2023/08/01 13:56:08;;;;;;;2.88;1.08;;;;;;;;;;5029024;28;20049;-85
2023/08/01 13:58:33;;;;;;;2.20;1.27;;;;;;;;;;5034437;28;20099;-84
2023/08/01 14:01:09;;;;;;;1.38;1.20;;;;;;;;;;5031425;28;20048;-81
2023/08/01 14:03:37;;;;;;;1.83;1.17;;;;;;;;;;5032037;28;20138;-82
2023/08/01 14:06:11;;;;;;;2.92;1.33;;;;;;;;;;5032894;28;20030;-82
2023/08/01 14:08:40;;;;;;;4.57;1.08;;;;;;;;;;5035030;28;20040;-82
2023/08/01 14:11:08;;;;;;;1.95;0.80;;;;;;;;;;5034061;28;20055;-83
2023/08/01 14:13:33;;;;;;;1.83;1.02;;;;;;;;;;5034820;28;20025;-83
2023/08/01 14:15:59;;;;;;;3.35;1.30;;;;;;;;;;5032328;28;20034;-83
2023/08/01 14:18:25;;;;;;;2.58;1.00;;;;;;;;;;5012490;28;20033;-85
2023/08/01 14:20:51;;;;;;;2.85;1.27;;;;;;;;;;5034975;28;20052;-85
2023/08/01 14:23:16;;;;;;;1.45;1.08;;;;;;;;;;5031815;28;20079;-84
2023/08/01 14:25:42;;;;;;;2.10;1.25;;;;;;;;;;5018458;28;20080;-84
2023/08/01 14:28:07;;;;;;;1.73;1.10;;;;;;;;;;5034444;28;20178;-84
2023/08/01 14:30:32;;;;;;;1.55;1.10;;;;;;;;;;5017018;28;20497;-85
2023/08/01 14:33:05;;;;;;;2.80;1.05;;;;;;;;;;5034115;28;20439;-85
2023/08/01 14:35:31;;;;;;;1.20;0.93;;;;;;;;;;5015378;28;20507;-84
2023/08/01 14:37:56;;;;;;;2.78;1.00;;;;;;;;;;5037506;28;20025;-85
2023/08/01 14:41:10;;;;;;;2.95;1.10;;;;;;;;;;5037741;28;20044;-86
2023/08/01 14:43:35;;;;;;;0.82;0.75;;;;;;;;;;4989567;28;20051;-84